Time;durP1;ratioP1;P1;durP2;ratioP2;P2;SDS_P1;SDS_P2;PMS_P1;PMS_P2;Temp;Humidity;BMP_temperature;BMP_pressure;BME280_temperature;BME280_humidity;BME280_pressure;Samples;Min_cycle;Max_cycle;Signal;HPM_P1;HPM_P2
2024/01/28 00:00:23;;;;;;;8.02;4.15;;;4.10;69.60;;;;;;2494778;54;21022;-66
2024/01/28 00:02:50;;;;;;;9.35;4.12;;;4.00;69.50;;;;;;2264611;55;21003;-65
2024/01/28 00:05:16;;;;;;;6.93;4.05;;;4.00;69.60;;;;;;2263881;55;20975;-67
2024/01/28 00:07:43;;;;;;;8.68;4.07;;;4.00;69.60;;;;;;2264256;55;20994;-67
2024/01/28 00:10:10;;;;;;;6.85;3.70;;;4.00;69.60;;;;;;2494006;54;20983;-66
2024/01/28 00:12:37;;;;;;;6.25;3.53;;;3.90;69.60;;;;;;2264373;55;21038;-66
2024/01/28 00:15:06;;;;;;;6.37;3.60;;;3.90;69.60;;;;;;2264993;55;20982;-66
2024/01/28 00:17:32;;;;;;;6.62;3.37;;;3.90;69.60;;;;;;2264676;55;21435;-66
2024/01/28 00:20:03;;;;;;;7.70;3.35;;;3.90;69.60;;;;;;2264956;55;21006;-66
2024/01/28 00:22:29;;;;;;;6.95;3.15;;;3.90;69.60;;;;;;2264771;55;20982;-67
2024/01/28 00:24:59;;;;;;;7.05;3.17;;;3.80;69.50;;;;;;2265057;55;20935;-66
2024/01/28 00:27:25;;;;;;;8.10;3.95;;;3.80;69.50;;;;;;2492732;54;21459;-67
2024/01/28 00:29:51;;;;;;;6.00;3.10;;;3.80;69.50;;;;;;2494247;54;21952;-66
2024/01/28 00:32:19;;;;;;;5.82;3.08;;;3.80;69.50;;;;;;2494093;54;20995;-65
2024/01/28 00:34:45;;;;;;;6.97;3.40;;;3.70;69.40;;;;;;2264643;55;20962;-66
2024/01/28 00:37:13;;;;;;;5.72;3.22;;;3.70;69.40;;;;;;2492110;54;20927;-67
2024/01/28 00:39:39;;;;;;;7.82;3.70;;;3.70;69.40;;;;;;2264239;55;20939;-66
2024/01/28 00:42:06;;;;;;;8.43;4.18;;;3.70;69.50;;;;;;2494701;54;21756;-67
2024/01/28 00:44:32;;;;;;;8.50;4.37;;;3.60;69.50;;;;;;2264488;55;21007;-66
2024/01/28 00:46:59;;;;;;;9.13;5.03;;;3.60;69.50;;;;;;2264443;55;21211;-67
2024/01/28 00:49:31;;;;;;;9.98;5.72;;;3.60;69.50;;;;;;2264384;55;20999;-66
2024/01/28 00:51:57;;;;;;;7.55;4.20;;;3.60;69.50;;;;;;2264683;55;21023;-67
2024/01/28 00:54:24;;;;;;;8.63;4.50;;;3.60;69.50;;;;;;2494661;54;21243;-67
2024/01/28 00:56:52;;;;;;;8.93;4.45;;;3.50;69.50;;;;;;2264791;55;20946;-66
2024/01/28 00:59:19;;;;;;;8.32;4.30;;;3.50;69.60;;;;;;2493963;54;21098;-67
2024/01/28 01:01:48;;;;;;;6.60;3.92;;;3.50;69.60;;;;;;2265260;55;21787;-67
2024/01/28 01:04:15;;;;;;;9.07;3.83;;;3.50;69.60;;;;;;2263497;55;21211;-67
2024/01/28 01:06:44;;;;;;;6.93;3.90;;;3.50;69.60;;;;;;2262417;55;21034;-65
2024/01/28 01:09:10;;;;;;;6.22;3.20;;;3.50;69.60;;;;;;2263832;55;21022;-66
2024/01/28 01:11:37;;;;;;;7.43;3.30;;;3.40;69.50;;;;;;2264700;55;20955;-66
2024/01/28 01:14:04;;;;;;;5.93;3.42;;;3.40;69.50;;;;;;2493423;54;21326;-66
2024/01/28 01:16:30;;;;;;;7.22;3.28;;;3.40;69.50;;;;;;2264314;55;20915;-66
2024/01/28 01:18:57;;;;;;;6.97;3.35;;;3.40;69.60;;;;;;2266468;55;20981;-66
2024/01/28 01:21:24;;;;;;;11.07;5.05;;;3.30;69.60;;;;;;2253432;56;21493;-67
2024/01/28 01:23:50;;;;;;;9.55;4.37;;;3.30;69.70;;;;;;2255835;56;20927;-66
2024/01/28 01:26:16;;;;;;;10.95;4.65;;;3.30;69.80;;;;;;2493814;54;20955;-65
2024/01/28 01:28:43;;;;;;;15.02;6.45;;;3.30;69.80;;;;;;2264574;55;20970;-67
2024/01/28 01:31:11;;;;;;;12.98;6.25;;;3.30;69.90;;;;;;2491810;54;21395;-67
2024/01/28 01:33:37;;;;;;;14.98;5.55;;;3.30;70.00;;;;;;2493112;54;20947;-65
2024/01/28 01:36:06;;;;;;;12.45;5.85;;;3.30;69.90;;;;;;2263342;55;21294;-67
2024/01/28 01:38:32;;;;;;;10.70;4.60;;;3.30;70.00;;;;;;2490586;54;21049;-67
2024/01/28 01:40:59;;;;;;;12.35;4.72;;;3.30;70.10;;;;;;2484028;54;21027;-66
2024/01/28 01:43:25;;;;;;;8.82;3.97;;;3.30;70.10;;;;;;2263930;55;21706;-66
2024/01/28 01:45:52;;;;;;;6.45;2.83;;;3.30;70.20;;;;;;2493357;54;20951;-65
2024/01/28 01:48:19;;;;;;;7.47;2.85;;;3.30;70.20;;;;;;2264456;55;21250;-67
2024/01/28 01:50:45;;;;;;;5.97;2.97;;;3.30;70.30;;;;;;2493173;54;20967;-67
2024/01/28 01:53:11;;;;;;;7.93;2.97;;;3.30;70.30;;;;;;2493644;54;21913;-65
2024/01/28 01:55:39;;;;;;;5.75;3.30;;;3.30;70.30;;;;;;2264490;55;20946;-67
2024/01/28 01:58:05;;;;;;;6.78;3.03;;;3.30;70.40;;;;;;2264438;55;21412;-67
2024/01/28 02:00:32;;;;;;;7.30;3.08;;;3.30;70.40;;;;;;2265087;55;21092;-67
2024/01/28 02:02:58;;;;;;;7.03;2.85;;;3.30;70.40;;;;;;2493665;54;21022;-65
2024/01/28 02:05:25;;;;;;;6.30;2.72;;;3.30;70.40;;;;;;2266170;55;21517;-66
2024/01/28 02:07:51;;;;;;;7.68;3.30;;;3.30;70.30;;;;;;2481971;54;20963;-67
2024/01/28 02:10:19;;;;;;;6.62;3.08;;;3.30;70.30;;;;;;2264412;55;20947;-66
2024/01/28 02:12:49;;;;;;;6.15;2.95;;;3.30;70.30;;;;;;2264383;55;20983;-66
2024/01/28 02:15:16;;;;;;;5.62;2.78;;;3.30;70.30;;;;;;2263349;55;21014;-66
2024/01/28 02:17:42;;;;;;;7.12;3.03;;;3.30;70.30;;;;;;2493045;54;21737;-65
2024/01/28 02:20:10;;;;;;;7.10;2.97;;;3.30;70.20;;;;;;2264514;55;20983;-67
2024/01/28 02:22:36;;;;;;;6.47;2.90;;;3.30;70.90;;;;;;2264113;55;21033;-66
2024/01/28 02:25:03;;;;;;;6.45;2.67;;;3.30;70.10;;;;;;2262417;55;21524;-65
2024/01/28 02:27:31;;;;;;;6.43;2.72;;;3.30;70.10;;;;;;2259457;55;21989;-65
2024/01/28 02:29:58;;;;;;;5.62;2.50;;;3.10;70.00;;;;;;2260444;55;20957;-66
2024/01/28 02:32:24;;;;;;;7.45;3.03;;;3.30;70.10;;;;;;2261063;55;20943;-66
2024/01/28 02:34:51;;;;;;;6.80;2.62;;;3.30;70.10;;;;;;2266201;55;20966;-66
2024/01/28 02:37:19;;;;;;;5.35;2.37;;;3.30;70.10;;;;;;2254535;55;20989;-66
2024/01/28 02:39:46;;;;;;;7.82;2.62;;;3.20;69.90;;;;;;2264330;55;20959;-66
2024/01/28 02:42:12;;;;;;;5.65;2.85;;;3.20;69.90;;;;;;2257151;56;21024;-66
2024/01/28 02:44:39;;;;;;;7.35;3.05;;;3.20;69.90;;;;;;2263571;55;20987;-67
2024/01/28 02:47:05;;;;;;;7.07;2.78;;;3.20;69.80;;;;;;2268182;55;20934;-66
2024/01/28 02:49:31;;;;;;;5.80;3.05;;;3.20;69.80;;;;;;2254918;56;21012;-65
2024/01/28 02:51:58;;;;;;;7.35;3.45;;;3.20;69.80;;;;;;2493600;54;21007;-66
2024/01/28 02:54:25;;;;;;;8.15;3.47;;;3.20;69.80;;;;;;2265094;55;20966;-66
2024/01/28 02:56:51;;;;;;;7.68;3.47;;;3.20;69.90;;;;;;2264877;55;20997;-66
2024/01/28 02:59:19;;;;;;;6.40;2.87;;;3.20;69.90;;;;;;2265352;55;21447;-67
2024/01/28 03:01:49;;;;;;;6.12;2.53;;;3.10;69.80;;;;;;2264512;55;21038;-64
2024/01/28 03:04:15;;;;;;;4.90;2.20;;;3.10;69.80;;;;;;2264601;55;20989;-65
2024/01/28 03:06:42;;;;;;;7.60;3.28;;;3.10;69.70;;;;;;2263804;55;20967;-67
2024/01/28 03:09:10;;;;;;;5.97;2.80;;;3.10;69.80;;;;;;2494466;54;21011;-66
2024/01/28 03:11:36;;;;;;;6.53;2.87;;;3.10;69.80;;;;;;2493704;54;21039;-67
2024/01/28 03:14:03;;;;;;;5.10;2.45;;;3.10;69.80;;;;;;2263050;55;20945;-66
2024/01/28 03:16:29;;;;;;;4.87;2.53;;;3.00;69.80;;;;;;2258637;56;21322;-65
2024/01/28 03:18:56;;;;;;;7.03;2.60;;;3.00;69.70;;;;;;2264734;55;20978;-66
2024/01/28 03:21:22;;;;;;;6.20;2.30;;;3.00;69.60;;;;;;2265236;55;21082;-65
2024/01/28 03:23:49;;;;;;;6.12;2.65;;;3.00;69.60;;;;;;2494058;54;20990;-66
2024/01/28 03:26:15;;;;;;;6.07;3.12;;;3.00;69.60;;;;;;2483856;54;21275;-67
2024/01/28 03:28:42;;;;;;;8.32;3.10;;;3.00;69.70;;;;;;2254168;55;20978;-65
2024/01/28 03:31:08;;;;;;;7.82;3.17;;;3.00;69.80;;;;;;2264892;55;20979;-65
2024/01/28 03:33:35;;;;;;;4.90;2.70;;;2.90;69.60;;;;;;2265030;55;21028;-66
2024/01/28 03:36:02;;;;;;;7.72;3.40;;;2.90;69.60;;;;;;2264407;55;20970;-67
2024/01/28 03:38:29;;;;;;;8.02;3.95;;;2.90;69.60;;;;;;2493741;54;20987;-66
2024/01/28 03:40:56;;;;;;;7.43;3.60;;;2.90;69.70;;;;;;2264865;55;21035;-66
2024/01/28 03:43:23;;;;;;;6.68;3.25;;;2.90;69.80;;;;;;2486534;55;20950;-66
2024/01/28 03:45:49;;;;;;;7.35;3.70;;;2.90;69.80;;;;;;2264479;55;21775;-65
2024/01/28 03:48:15;;;;;;;6.60;3.70;;;2.90;69.90;;;;;;2494663;54;21014;-67
2024/01/28 03:50:42;;;;;;;6.82;3.55;;;2.90;69.90;;;;;;2264336;55;21003;-67
2024/01/28 03:53:08;;;;;;;7.03;3.45;;;2.90;69.90;;;;;;2264920;55;20963;-67
2024/01/28 03:55:34;;;;;;;5.70;2.95;;;2.90;70.00;;;;;;2494473;54;20990;-65
2024/01/28 03:58:00;;;;;;;7.65;3.90;;;2.80;69.80;;;;;;2264691;55;21396;-67
2024/01/28 04:00:33;;;;;;;7.03;2.97;;;2.80;69.80;;;;;;2257391;56;20953;-67
2024/01/28 04:03:01;;;;;;;8.85;3.58;;;2.80;69.80;;;;;;2265084;55;21026;-66
2024/01/28 04:05:27;;;;;;;6.05;3.20;;;2.80;69.80;;;;;;2264527;55;21423;-65
2024/01/28 04:07:53;;;;;;;5.75;3.30;;;2.80;69.70;;;;;;2494277;54;20991;-66
2024/01/28 04:10:20;;;;;;;5.97;2.92;;;2.80;69.70;;;;;;2265425;55;20966;-66
2024/01/28 04:12:46;;;;;;;5.35;2.70;;;2.80;69.70;;;;;;2264464;55;21002;-67
2024/01/28 04:15:13;;;;;;;6.20;2.92;;;2.80;69.70;;;;;;2494060;54;21050;-66
2024/01/28 04:17:39;;;;;;;6.60;3.47;;;2.80;69.70;;;;;;2494385;54;20981;-65
2024/01/28 04:20:06;;;;;;;6.40;2.78;;;2.80;69.70;;;;;;2264513;55;20979;-65
2024/01/28 04:22:32;;;;;;;5.30;2.60;;;2.70;69.60;;;;;;2493522;54;21015;-66
2024/01/28 04:24:59;;;;;;;5.90;2.62;;;2.70;70.20;;;;;;2264947;55;21471;-66
2024/01/28 04:27:25;;;;;;;5.97;3.20;;;2.70;69.50;;;;;;2259852;56;20952;-66
2024/01/28 04:29:51;;;;;;;5.72;2.90;;;2.70;69.50;;;;;;2259847;55;20985;-66
2024/01/28 04:32:19;;;;;;;5.53;2.90;;;2.70;69.50;;;;;;2260517;55;20942;-66
2024/01/28 04:34:45;;;;;;;5.62;3.15;;;2.70;69.50;;;;;;2493389;54;20919;-65
2024/01/28 04:37:12;;;;;;;4.93;2.60;;;2.70;69.60;;;;;;2493556;54;20971;-65
2024/01/28 04:39:38;;;;;;;5.90;2.42;;;2.60;69.50;;;;;;2494107;54;20970;-66
2024/01/28 04:42:08;;;;;;;7.53;2.80;;;2.60;69.50;;;;;;2264305;55;21011;-65
2024/01/28 04:44:35;;;;;;;8.27;2.90;;;2.60;69.50;;;;;;2264415;55;21707;-65
2024/01/28 04:47:02;;;;;;;7.70;3.40;;;2.60;69.50;;;;;;2265376;55;21034;-67
2024/01/28 04:49:28;;;;;;;6.20;3.10;;;2.60;69.50;;;;;;2494483;54;21969;-66
2024/01/28 04:51:55;;;;;;;7.40;3.12;;;2.60;69.40;;;;;;2264317;55;21018;-66
2024/01/28 04:54:22;;;;;;;8.35;2.90;;;2.50;69.30;;;;;;2494234;54;21002;-65
2024/01/28 04:56:49;;;;;;;5.78;2.90;;;2.50;69.30;;;;;;2264197;55;20962;-67
2024/01/28 04:59:15;;;;;;;8.32;3.70;;;2.50;69.20;;;;;;2265402;55;21477;-67
2024/01/28 05:01:41;;;;;;;8.35;3.08;;;2.50;69.20;;;;;;2256737;56;21002;-67
2024/01/28 05:04:07;;;;;;;7.62;3.42;;;2.50;69.30;;;;;;2265173;55;20962;-66
2024/01/28 05:06:36;;;;;;;6.05;3.03;;;2.50;69.30;;;;;;2265934;55;21010;-67
2024/01/28 05:09:03;;;;;;;6.72;2.97;;;2.50;69.30;;;;;;2255875;55;21440;-66
2024/01/28 05:11:31;;;;;;;7.40;3.40;;;2.40;69.20;;;;;;2264479;55;21006;-65
2024/01/28 05:13:58;;;;;;;6.68;3.15;;;2.40;69.20;;;;;;2264053;55;20963;-66
2024/01/28 05:16:25;;;;;;;9.00;3.92;;;2.40;69.20;;;;;;2264717;55;20958;-66
2024/01/28 05:18:53;;;;;;;8.88;3.25;;;2.40;69.30;;;;;;2263831;55;21030;-65
2024/01/28 05:21:21;;;;;;;7.95;3.12;;;2.40;69.30;;;;;;2265491;55;21351;-66
2024/01/28 05:23:50;;;;;;;6.80;2.90;;;2.40;69.30;;;;;;2256846;55;21035;-67
2024/01/28 05:26:20;;;;;;;8.60;3.67;;;2.30;69.10;;;;;;2266885;55;20967;-67
2024/01/28 05:28:46;;;;;;;5.10;2.70;;;2.30;69.10;;;;;;2494124;54;20950;-65
2024/01/28 05:31:13;;;;;;;5.82;2.53;;;2.30;69.20;;;;;;2264436;55;21035;-66
2024/01/28 05:33:40;;;;;;;7.18;2.97;;;2.30;69.20;;;;;;2265221;55;20942;-65
2024/01/28 05:36:14;;;;;;;5.80;2.90;;;2.30;69.30;;;;;;2261582;55;20987;-66
2024/01/28 05:38:40;;;;;;;5.93;2.83;;;2.30;69.30;;;;;;2261704;55;21408;-66
2024/01/28 05:41:07;;;;;;;5.18;2.28;;;2.20;69.20;;;;;;2264740;55;20982;-66
2024/01/28 05:43:33;;;;;;;6.28;2.53;;;2.20;69.30;;;;;;2265356;55;21302;-66
2024/01/28 05:46:00;;;;;;;4.50;2.22;;;2.20;69.30;;;;;;2493063;54;21695;-67
2024/01/28 05:48:27;;;;;;;4.03;2.15;;;2.20;69.30;;;;;;2263183;55;21304;-66
2024/01/28 05:50:53;;;;;;;6.30;2.95;;;2.20;69.30;;;;;;2244437;55;20996;-66
2024/01/28 05:53:19;;;;;;;5.97;2.90;;;2.20;69.30;;;;;;2265206;55;21832;-65
2024/01/28 05:55:46;;;;;;;7.30;3.47;;;2.20;69.30;;;;;;2265106;55;21058;-65
2024/01/28 05:58:13;;;;;;;5.85;2.83;;;2.20;69.40;;;;;;2494211;54;20922;-66
2024/01/28 06:00:39;;;;;;;8.68;3.47;;;2.10;69.30;;;;;;2264014;55;22498;-66
2024/01/28 06:03:06;;;;;;;6.07;2.92;;;2.20;69.40;;;;;;2264540;55;20951;-66
2024/01/28 06:05:32;;;;;;;6.93;2.87;;;2.10;69.30;;;;;;2490369;54;21770;-66
2024/01/28 06:07:59;;;;;;;5.53;2.80;;;2.10;69.30;;;;;;2252551;55;21065;-66
2024/01/28 06:10:25;;;;;;;7.97;2.78;;;2.10;69.20;;;;;;2491857;54;21313;-67
2024/01/28 06:12:51;;;;;;;5.82;3.20;;;2.10;69.20;;;;;;2264653;55;21302;-66
2024/01/28 06:15:18;;;;;;;6.90;3.35;;;2.10;69.20;;;;;;2264984;55;20998;-66
2024/01/28 06:17:44;;;;;;;7.97;3.62;;;2.10;69.30;;;;;;2493204;54;21726;-66
2024/01/28 06:20:13;;;;;;;6.15;2.78;;;2.10;69.30;;;;;;2264749;55;20975;-66
2024/01/28 06:22:40;;;;;;;5.62;2.78;;;2.10;69.40;;;;;;2265519;55;20947;-65
2024/01/28 06:25:07;;;;;;;7.05;3.08;;;2.00;69.30;;;;;;2265017;55;21496;-66
2024/01/28 06:27:33;;;;;;;5.12;2.78;;;2.00;69.30;;;;;;2495078;54;21006;-65
2024/01/28 06:29:59;;;;;;;5.87;2.65;;;2.00;69.30;;;;;;2264352;55;20962;-66
2024/01/28 06:32:26;;;;;;;6.55;2.67;;;2.00;69.20;;;;;;2494550;54;20998;-67
2024/01/28 06:34:52;;;;;;;5.87;2.75;;;2.00;69.20;;;;;;2494263;54;21018;-65
2024/01/28 06:37:19;;;;;;;5.28;2.47;;;2.00;69.30;;;;;;2264121;55;20990;-66
2024/01/28 06:39:51;;;;;;;5.60;2.75;;;2.00;69.20;;;;;;2494311;54;20955;-65
2024/01/28 06:42:20;;;;;;;8.15;3.35;;;2.00;69.20;;;;;;2265433;55;21376;-67
2024/01/28 06:44:47;;;;;;;5.35;2.65;;;2.00;69.20;;;;;;2264392;55;21643;-65
2024/01/28 06:47:15;;;;;;;6.30;2.97;;;2.00;69.20;;;;;;2264379;55;21054;-66
2024/01/28 06:49:42;;;;;;;6.75;3.08;;;1.90;69.20;;;;;;2494975;54;20994;-67
2024/01/28 06:52:08;;;;;;;6.00;2.72;;;1.90;69.20;;;;;;2494371;54;21756;-65
2024/01/28 06:54:37;;;;;;;8.07;3.33;;;1.90;69.20;;;;;;2264967;55;21014;-66
2024/01/28 06:57:04;;;;;;;11.00;4.10;;;1.90;69.20;;;;;;2494195;54;21796;-66
2024/01/28 06:59:30;;;;;;;7.40;3.40;;;1.90;69.20;;;;;;2264567;55;21003;-66
2024/01/28 07:01:56;;;;;;;7.90;3.35;;;1.90;69.20;;;;;;2263825;55;21043;-66
2024/01/28 07:04:23;;;;;;;7.30;3.40;;;1.90;69.20;;;;;;2265692;55;20949;-67
2024/01/28 07:06:49;;;;;;;6.00;2.97;;;1.80;69.20;;;;;;2265087;55;21036;-66
2024/01/28 07:09:17;;;;;;;8.40;3.50;;;1.90;69.30;;;;;;2264903;55;20999;-66
2024/01/28 07:11:44;;;;;;;7.12;3.60;;;1.90;69.30;;;;;;2494368;54;21050;-66
2024/01/28 07:14:13;;;;;;;7.37;3.70;;;1.80;69.20;;;;;;2264477;55;20966;-65
2024/01/28 07:16:40;;;;;;;7.28;3.37;;;1.90;69.30;;;;;;2264828;55;21011;-66
2024/01/28 07:19:08;;;;;;;8.55;3.90;;;1.80;69.30;;;;;;2264481;55;21050;-65
2024/01/28 07:21:34;;;;;;;6.30;3.05;;;1.80;69.30;;;;;;2264609;55;20987;-65
2024/01/28 07:24:04;;;;;;;5.95;3.00;;;1.80;69.30;;;;;;2264000;55;20971;-64
2024/01/28 07:26:32;;;;;;;6.68;3.17;;;1.80;69.30;;;;;;2264948;55;20962;-65
2024/01/28 07:28:59;;;;;;;6.85;2.87;;;1.80;69.20;;;;;;2264719;55;21030;-66
2024/01/28 07:31:26;;;;;;;8.27;3.30;;;1.80;69.30;;;;;;2258020;56;20944;-66
2024/01/28 07:33:57;;;;;;;7.65;3.42;;;1.80;69.30;;;;;;2263984;55;20967;-67
2024/01/28 07:36:23;;;;;;;8.48;3.53;;;1.80;69.40;;;;;;2478634;54;20969;-66
2024/01/28 07:38:50;;;;;;;6.25;3.08;;;1.80;69.40;;;;;;2493002;54;21789;-65
2024/01/28 07:41:16;;;;;;;6.85;3.53;;;1.80;69.40;;;;;;2492800;54;21030;-66
2024/01/28 07:43:42;;;;;;;7.55;4.05;;;1.80;69.40;;;;;;2265413;55;21042;-67
2024/01/28 07:46:09;;;;;;;8.13;4.43;;;1.80;69.50;;;;;;2264324;55;21830;-66
2024/01/28 07:48:35;;;;;;;9.38;4.97;;;1.80;69.60;;;;;;2265727;55;20986;-65
2024/01/28 07:51:02;;;;;;;11.35;5.68;;;1.80;69.60;;;;;;2494662;54;20987;-66
2024/01/28 07:53:29;;;;;;;9.35;5.35;;;1.80;69.70;;;;;;2265211;55;21356;-65
2024/01/28 07:55:55;;;;;;;10.35;6.85;;;1.80;69.70;;;;;;2494107;54;20915;-66
2024/01/28 07:58:21;;;;;;;12.48;6.87;;;1.80;69.80;;;;;;2494473;54;21058;-65
2024/01/28 08:00:48;;;;;;;13.25;7.07;;;1.80;69.90;;;;;;2265068;55;20942;-65
2024/01/28 08:03:14;;;;;;;10.13;6.75;;;1.80;69.90;;;;;;2264387;55;20975;-66
2024/01/28 08:05:41;;;;;;;11.52;6.47;;;1.80;70.00;;;;;;2259624;55;20976;-66
2024/01/28 08:08:07;;;;;;;11.75;7.18;;;1.90;70.10;;;;;;2262692;55;20950;-66
2024/01/28 08:10:34;;;;;;;9.65;5.62;;;1.90;70.10;;;;;;2263957;55;21094;-66
2024/01/28 08:13:00;;;;;;;9.93;5.32;;;1.90;70.10;;;;;;2493866;54;20958;-65
2024/01/28 08:15:29;;;;;;;7.93;4.15;;;1.90;70.10;;;;;;2494469;54;21219;-65
2024/01/28 08:17:56;;;;;;;9.00;5.05;;;1.90;70.10;;;;;;2493712;54;21007;-65
2024/01/28 08:20:23;;;;;;;11.60;5.57;;;1.90;70.10;;;;;;2494727;54;20910;-65
2024/01/28 08:22:50;;;;;;;8.82;5.15;;;1.90;70.20;;;;;;2481861;54;21016;-67
2024/01/28 08:25:16;;;;;;;8.63;5.28;;;1.90;70.30;;;;;;2264681;55;21783;-67
2024/01/28 08:27:44;;;;;;;11.38;6.60;;;2.00;70.40;;;;;;2265634;55;20927;-65
2024/01/28 08:30:11;;;;;;;12.85;8.32;;;1.90;70.40;;;;;;2265204;55;21552;-66
2024/01/28 08:32:40;;;;;;;13.30;8.00;;;2.00;70.60;;;;;;2494536;54;20985;-67
2024/01/28 08:35:07;;;;;;;15.57;7.95;;;2.00;70.60;;;;;;2494173;54;20995;-66
2024/01/28 08:37:35;;;;;;;14.80;8.35;;;2.10;70.80;;;;;;2265375;55;21141;-66
2024/01/28 08:40:01;;;;;;;17.62;9.85;;;2.10;70.90;;;;;;2263791;55;20951;-67
2024/01/28 08:42:28;;;;;;;15.32;8.88;;;2.10;70.90;;;;;;2494513;54;20979;-66
2024/01/28 08:44:57;;;;;;;16.80;10.30;;;2.20;71.10;;;;;;2264550;55;20949;-67
2024/01/28 08:47:23;;;;;;;22.65;11.73;;;2.20;71.20;;;;;;2265367;55;21029;-65
2024/01/28 08:49:50;;;;;;;22.48;13.15;;;2.20;71.20;;;;;;2265528;55;20958;-67
2024/01/28 08:52:17;;;;;;;27.87;15.23;;;2.30;71.30;;;;;;2263950;55;21007;-66
2024/01/28 08:54:47;;;;;;;31.27;16.37;;;2.30;71.50;;;;;;2264501;55;20986;-66
2024/01/28 08:57:15;;;;;;;34.33;18.37;;;2.40;71.60;;;;;;2264901;55;20954;-67
2024/01/28 08:59:41;;;;;;;32.58;16.95;;;2.40;71.60;;;;;;2266138;55;20934;-66
2024/01/28 09:02:08;;;;;;;30.40;15.68;;;2.40;71.70;;;;;;2265212;55;20934;-66
2024/01/28 09:04:34;;;;;;;30.27;15.63;;;2.50;71.90;;;;;;2265610;55;21011;-65
2024/01/28 09:07:00;;;;;;;23.65;11.93;;;2.60;72.10;;;;;;2494039;54;21002;-66
2024/01/28 09:09:28;;;;;;;18.90;9.82;;;2.60;72.20;;;;;;2494316;54;20950;-67
2024/01/28 09:12:00;;;;;;;18.67;9.05;;;2.70;72.50;;;;;;2489483;54;21053;-66
2024/01/28 09:14:29;;;;;;;15.52;8.30;;;2.70;72.70;;;;;;2258630;56;21007;-66
2024/01/28 09:16:58;;;;;;;19.33;8.48;;;2.80;72.90;;;;;;2494265;54;20954;-66
2024/01/28 09:19:26;;;;;;;21.85;9.32;;;2.90;73.20;;;;;;2264968;55;21021;-67
2024/01/28 09:21:52;;;;;;;17.77;8.93;;;2.90;73.30;;;;;;2478316;55;21084;-67
2024/01/28 09:24:18;;;;;;;19.67;9.48;;;2.80;73.20;;;;;;2492059;54;20943;-67
2024/01/28 09:26:47;;;;;;;18.92;9.45;;;3.10;73.50;;;;;;2262437;55;21064;-65
2024/01/28 09:29:14;;;;;;;16.00;8.63;;;3.20;73.70;;;;;;2260099;55;20959;-67
2024/01/28 09:31:44;;;;;;;15.23;7.57;;;3.30;73.80;;;;;;2492271;54;20967;-66
2024/01/28 09:34:11;;;;;;;15.68;9.10;;;3.40;74.00;;;;;;2263310;55;21751;-66
2024/01/28 09:36:37;;;;;;;14.63;8.88;;;3.40;74.00;;;;;;2265305;55;20975;-65
2024/01/28 09:39:04;;;;;;;15.07;8.90;;;3.50;74.20;;;;;;2493752;54;20982;-67
2024/01/28 09:41:43;;;;;;;14.75;9.13;;;3.60;74.30;;;;;;2494440;54;21066;-67
2024/01/28 09:44:12;;;;;;;20.75;11.88;;;3.80;74.50;;;;;;2266087;55;20947;-66
2024/01/28 09:46:38;;;;;;;15.52;9.55;;;3.80;74.50;;;;;;2264124;55;21036;-66
2024/01/28 09:49:05;;;;;;;13.23;8.65;;;3.90;74.60;;;;;;2258888;55;21028;-66
2024/01/28 09:51:32;;;;;;;12.75;7.93;;;4.00;74.80;;;;;;2264945;55;20978;-67
2024/01/28 09:53:59;;;;;;;15.57;7.93;;;4.00;74.80;;;;;;2264143;55;20962;-66
2024/01/28 09:56:25;;;;;;;13.82;8.40;;;4.10;74.90;;;;;;2264581;55;21524;-67
2024/01/28 09:58:53;;;;;;;12.13;7.37;;;4.20;75.00;;;;;;2256771;56;20989;-67
2024/01/28 10:01:21;;;;;;;11.12;7.40;;;4.30;75.10;;;;;;2494401;54;20959;-66
2024/01/28 10:03:47;;;;;;;12.43;7.50;;;4.40;75.10;;;;;;2265074;55;20969;-66
2024/01/28 10:06:14;;;;;;;14.30;7.93;;;4.50;75.30;;;;;;2493912;54;21062;-66
2024/01/28 10:08:40;;;;;;;12.40;8.32;;;4.60;75.50;;;;;;2481308;54;21239;-68
2024/01/28 10:11:09;;;;;;;11.95;7.60;;;4.70;75.70;;;;;;2264594;55;21021;-67
2024/01/28 10:13:35;;;;;;;12.73;8.07;;;4.80;75.80;;;;;;2494702;54;20966;-67
2024/01/28 10:16:02;;;;;;;14.52;9.15;;;4.90;75.90;;;;;;2493480;54;20950;-66
2024/01/28 10:18:28;;;;;;;16.20;9.82;;;5.00;76.70;;;;;;2493903;54;20942;-67
2024/01/28 10:20:55;;;;;;;21.10;12.35;;;5.20;76.60;;;;;;2494006;54;21042;-66
2024/01/28 10:23:21;;;;;;;16.75;10.70;;;5.30;77.20;;;;;;2264915;55;20958;-66
2024/01/28 10:25:50;;;;;;;15.82;10.73;;;5.40;78.00;;;;;;2265998;56;21535;-66
2024/01/28 10:28:17;;;;;;;15.70;10.13;;;5.60;78.70;;;;;;2494116;54;21042;-68
2024/01/28 10:30:44;;;;;;;16.98;10.60;;;5.80;79.40;;;;;;2254408;55;20974;-67
2024/01/28 10:33:10;;;;;;;15.02;10.27;;;6.00;79.90;;;;;;2494081;54;21757;-66
2024/01/28 10:35:38;;;;;;;15.10;11.35;;;6.20;80.50;;;;;;2494909;54;20987;-68
2024/01/28 10:38:05;;;;;;;14.48;10.50;;;6.40;80.70;;;;;;2494076;54;21025;-67
2024/01/28 10:40:34;;;;;;;14.52;9.55;;;6.60;80.70;;;;;;2264842;55;21698;-67
2024/01/28 10:43:01;;;;;;;13.57;9.30;;;6.70;80.80;;;;;;2493622;54;21602;-68
2024/01/28 10:45:31;;;;;;;13.85;9.32;;;6.90;80.70;;;;;;2494298;54;21026;-66
2024/01/28 10:48:05;;;;;;;10.98;7.80;;;7.10;80.80;;;;;;2263018;55;21045;-68
2024/01/28 10:50:32;;;;;;;10.07;7.37;;;7.30;80.80;;;;;;2494374;54;21014;-67
2024/01/28 10:52:59;;;;;;;11.23;8.30;;;7.40;80.40;;;;;;2264576;55;21447;-68
2024/01/28 10:55:25;;;;;;;15.25;8.60;;;7.60;80.30;;;;;;2265085;55;21301;-67
2024/01/28 10:57:54;;;;;;;12.80;9.15;;;7.70;80.50;;;;;;2494331;54;21026;-67
2024/01/28 11:00:28;;;;;;;10.55;7.95;;;7.80;80.70;;;;;;2264634;55;21707;-69
2024/01/28 11:02:56;;;;;;;11.60;8.02;;;8.00;80.80;;;;;;2493981;54;20986;-67
2024/01/28 11:05:23;;;;;;;10.13;7.37;;;8.20;80.70;;;;;;2264482;55;21545;-67
2024/01/28 11:07:49;;;;;;;11.48;7.50;;;8.30;80.70;;;;;;2264763;55;21050;-68
2024/01/28 11:10:17;;;;;;;10.55;7.05;;;8.50;80.90;;;;;;2493376;54;21017;-69
2024/01/28 11:12:44;;;;;;;8.43;6.60;;;8.60;81.20;;;;;;2265353;55;20938;-68
2024/01/28 11:15:13;;;;;;;12.25;7.75;;;8.80;80.90;;;;;;2264695;55;22154;-68
2024/01/28 11:17:39;;;;;;;9.50;6.47;;;8.90;80.50;;;;;;2494065;54;20947;-67
2024/01/28 11:20:22;;;;;;;10.45;6.97;;;9.00;80.30;;;;;;2264315;55;21078;-69
2024/01/28 11:22:56;;;;;;;7.90;5.78;;;9.20;79.60;;;;;;2263171;55;20986;-67
2024/01/28 11:25:24;;;;;;;8.40;5.78;;;9.30;78.90;;;;;;2264818;55;21038;-67
2024/01/28 11:27:51;;;;;;;7.30;5.57;;;9.40;79.20;;;;;;2263305;55;21068;-67
2024/01/28 11:30:22;;;;;;;7.50;5.18;;;9.40;79.00;;;;;;2259241;55;21900;-69
2024/01/28 11:32:54;;;;;;;8.80;5.75;;;9.50;78.90;;;;;;2494430;54;21561;-67
2024/01/28 11:35:23;;;;;;;8.55;5.90;;;9.60;78.40;;;;;;2264348;55;22108;-67
2024/01/28 11:37:57;;;;;;;8.98;6.55;;;9.70;78.00;;;;;;2494595;54;20974;-68
2024/01/28 11:40:32;;;;;;;8.70;6.20;;;9.80;78.00;;;;;;2265124;55;21044;-67
2024/01/28 11:42:59;;;;;;;7.72;5.68;;;9.80;78.00;;;;;;2494582;54;21887;-67
2024/01/28 11:45:25;;;;;;;8.50;5.50;;;9.90;78.20;;;;;;2494566;54;21002;-68
2024/01/28 11:47:52;;;;;;;10.05;5.10;;;10.00;77.10;;;;;;2494588;54;21005;-69
2024/01/28 11:50:18;;;;;;;9.60;6.20;;;10.00;76.90;;;;;;2494317;54;20950;-69
2024/01/28 11:52:44;;;;;;;9.90;6.12;;;10.10;76.70;;;;;;2494954;54;21014;-68
2024/01/28 11:55:15;;;;;;;7.93;5.68;;;10.10;76.20;;;;;;2493865;54;20982;-68
2024/01/28 11:57:46;;;;;;;9.55;5.30;;;10.20;75.90;;;;;;2264958;55;20950;-67
2024/01/28 12:00:12;;;;;;;8.40;5.22;;;10.20;75.50;;;;;;2493675;54;21243;-68
2024/01/28 12:02:39;;;;;;;7.15;4.72;;;10.20;75.20;;;;;;2493560;54;20963;-68
2024/01/28 12:05:08;;;;;;;6.65;4.72;;;10.30;75.00;;;;;;2493793;54;20967;-68
2024/01/28 12:07:45;;;;;;;7.20;4.70;;;10.30;74.70;;;;;;2456371;55;20943;-68
2024/01/28 12:10:12;;;;;;;7.80;4.57;;;10.30;74.30;;;;;;2494037;54;20966;-68
2024/01/28 12:12:42;;;;;;;10.60;5.95;;;10.30;74.30;;;;;;2494296;54;20922;-67
2024/01/28 12:15:09;;;;;;;10.52;6.12;;;10.30;74.20;;;;;;2493928;54;20966;-68
2024/01/28 12:17:36;;;;;;;9.20;5.47;;;10.30;74.20;;;;;;2494158;54;20990;-68
2024/01/28 12:20:03;;;;;;;8.05;5.10;;;10.20;73.90;;;;;;2264453;55;20978;-67
2024/01/28 12:22:39;;;;;;;8.77;5.28;;;10.20;73.80;;;;;;2264525;55;21002;-68
2024/01/28 12:25:12;;;;;;;8.57;5.68;;;10.20;73.50;;;;;;2264230;55;20947;-67
2024/01/28 12:27:39;;;;;;;7.68;5.47;;;10.20;73.70;;;;;;2494776;54;20990;-67
2024/01/28 12:30:07;;;;;;;9.30;5.37;;;10.20;73.90;;;;;;2491898;54;21026;-67
2024/01/28 12:32:33;;;;;;;8.30;6.22;;;10.20;73.90;;;;;;2483220;54;20982;-67
2024/01/28 12:35:04;;;;;;;9.48;5.22;;;10.20;74.00;;;;;;2264464;55;20966;-67
2024/01/28 12:37:31;;;;;;;8.40;6.37;;;10.20;74.00;;;;;;2494427;54;20979;-68
2024/01/28 12:39:57;;;;;;;7.40;5.18;;;10.20;74.10;;;;;;2264761;55;21301;-68
2024/01/28 12:42:24;;;;;;;7.93;5.05;;;10.20;74.10;;;;;;2494229;54;20994;-69
2024/01/28 12:44:51;;;;;;;7.07;4.72;;;10.20;74.10;;;;;;2264255;55;20977;-67
2024/01/28 12:47:17;;;;;;;7.12;4.80;;;10.30;74.20;;;;;;2490312;54;20947;-67
2024/01/28 12:49:43;;;;;;;6.97;4.78;;;10.30;74.30;;;;;;2493561;54;20942;-66
2024/01/28 12:52:10;;;;;;;8.63;5.90;;;10.30;74.40;;;;;;2264126;55;21270;-68